< < Back
Terminal Aerodrome Forecast


Current Version              Previous Versions:   1  2  3  4  5  6  7  8  9  

Terminal Aerodrome Forecast

822
FTUS42 KTAE 260535
TAFDHN
TAF
KDHN 260535Z 2606/2706 00000KT P6SM SKC
     FM261500 08010KT P6SM SCT250=

Latest METAR

148
SAUS70 KWBC 261700 RRK
MTRDHN
METAR KDHN 261653Z 08006KT 10SM CLR 31/22 A3011 RMK AO2 SLP189
T03110217


USA.gov is the U.S. government's official web portal to all federal, state and local government web resources and services.